createdAt,value
2023-04-24T00:02:08.026Z,14.90
2023-04-24T00:04:35.212Z,16.40
2023-04-24T00:07:02.324Z,19.00
2023-04-24T00:09:29.366Z,21.00
2023-04-24T00:11:57.195Z,22.80
2023-04-24T00:14:24.328Z,22.20
2023-04-24T00:16:51.458Z,21.20
2023-04-24T00:19:18.622Z,22.00
2023-04-24T00:21:45.604Z,22.80
2023-04-24T00:24:12.640Z,23.50
2023-04-24T00:26:39.751Z,24.50
2023-04-24T00:29:06.845Z,24.30
2023-04-24T00:31:36.345Z,26.80
2023-04-24T00:34:04.280Z,26.90
2023-04-24T00:36:32.152Z,27.90
2023-04-24T00:38:59.800Z,28.60
2023-04-24T00:41:27.158Z,29.10
2023-04-24T00:43:54.375Z,29.30
2023-04-24T00:46:22.353Z,28.00
2023-04-24T00:48:49.432Z,27.80
2023-04-24T00:51:16.859Z,27.10
2023-04-24T00:53:43.795Z,25.80
2023-04-24T00:56:11.186Z,26.50
2023-04-24T00:58:38.181Z,27.90
2023-04-24T01:01:08.245Z,28.40
2023-04-24T01:03:38.503Z,29.50
2023-04-24T01:06:06.756Z,25.90
2023-04-24T01:08:36.033Z,25.40
2023-04-24T01:11:05.584Z,25.70
2023-04-24T01:13:33.956Z,24.80
2023-04-24T01:16:02.042Z,25.90
2023-04-24T01:18:29.317Z,28.00
2023-04-24T01:20:59.872Z,29.50
2023-04-24T01:23:27.995Z,29.00
2023-04-24T01:25:55.691Z,29.50
2023-04-24T01:28:22.956Z,30.10
2023-04-24T01:30:50.516Z,28.80
2023-04-24T01:33:18.041Z,29.10
2023-04-24T01:35:45.118Z,30.50
2023-04-24T01:38:12.108Z,32.30
2023-04-24T01:40:39.208Z,33.40
2023-04-24T01:43:06.781Z,37.30
2023-04-24T01:45:33.853Z,35.20
2023-04-24T01:48:01.842Z,33.50
2023-04-24T01:50:28.939Z,32.60
2023-04-24T01:52:56.509Z,32.70
2023-04-24T01:55:23.517Z,28.50
2023-04-24T01:57:51.116Z,27.70
2023-04-24T02:00:18.111Z,26.10
2023-04-24T02:02:48.192Z,21.00
2023-04-24T02:05:16.174Z,20.60
2023-04-24T02:07:43.089Z,18.80
2023-04-24T02:10:10.867Z,17.10
2023-04-24T02:12:47.040Z,14.00
2023-04-24T02:15:18.593Z,13.80
2023-04-24T02:17:45.578Z,14.20
2023-04-24T02:20:12.586Z,14.20
2023-04-24T02:22:39.536Z,14.30
2023-04-24T02:25:07.109Z,13.80
2023-04-24T02:27:35.706Z,13.80
2023-04-24T02:30:04.420Z,13.70
2023-04-24T02:32:35.005Z,14.20
2023-04-24T02:35:02.498Z,15.20
2023-04-24T02:37:29.386Z,16.00
2023-04-24T02:40:03.333Z,16.10
2023-04-24T02:42:31.892Z,17.30
2023-04-24T02:45:00.307Z,18.00
2023-04-24T02:47:27.227Z,19.60
2023-04-24T02:49:54.357Z,18.50
2023-04-24T02:52:23.582Z,20.10
2023-04-24T02:54:53.419Z,19.70
2023-04-24T02:57:20.387Z,20.10
2023-04-24T02:59:47.237Z,20.20
2023-04-24T03:02:15.438Z,21.60
2023-04-24T03:04:44.447Z,21.50
2023-04-24T03:07:13.730Z,21.60
2023-04-24T03:09:43.416Z,21.70
2023-04-24T03:12:10.507Z,22.50
2023-04-24T03:14:40.340Z,22.80
2023-04-24T03:17:09.523Z,24.00
2023-04-24T03:19:37.569Z,24.90
2023-04-24T03:22:06.796Z,23.70
2023-04-24T03:24:33.754Z,21.80
2023-04-24T03:27:02.657Z,22.70
2023-04-24T03:29:32.522Z,25.30
2023-04-24T03:32:00.246Z,27.40
2023-04-24T03:34:28.159Z,28.90
2023-04-24T03:36:57.301Z,30.90
2023-04-24T03:39:25.739Z,30.70
2023-04-24T03:41:55.507Z,32.40
2023-04-24T03:44:26.073Z,35.20
2023-04-24T03:46:55.677Z,37.70
2023-04-24T03:49:23.161Z,37.80
2023-04-24T03:51:50.096Z,41.10
2023-04-24T03:54:17.032Z,40.50
2023-04-24T03:56:43.985Z,39.90
2023-04-24T03:59:10.906Z,41.30
2023-04-24T04:01:38.385Z,41.00
2023-04-24T04:04:05.837Z,41.50
2023-04-24T04:06:33.090Z,41.30
2023-04-24T04:09:00.845Z,41.40
2023-04-24T04:11:27.795Z,43.50
2023-04-24T04:13:54.762Z,45.00
2023-04-24T04:16:21.744Z,45.30
2023-04-24T04:18:48.704Z,45.90
2023-04-24T04:21:15.701Z,46.50
2023-04-24T04:23:42.873Z,47.00
2023-04-24T04:26:09.756Z,46.80
2023-04-24T04:28:36.624Z,47.50
2023-04-24T04:31:03.928Z,46.70
2023-04-24T04:33:32.401Z,47.20
2023-04-24T04:35:59.465Z,45.60
2023-04-24T04:38:27.826Z,45.60
2023-04-24T04:40:54.811Z,45.50
2023-04-24T04:43:21.747Z,44.70
2023-04-24T04:45:49.414Z,44.20
2023-04-24T04:48:18.740Z,45.60
2023-04-24T04:50:46.212Z,44.40
2023-04-24T04:53:13.197Z,44.20
2023-04-24T04:55:40.279Z,43.70
2023-04-24T04:58:07.205Z,42.80
2023-04-24T05:00:36.901Z,40.10
2023-04-24T05:03:19.168Z,39.20
2023-04-24T05:05:47.437Z,38.40
2023-04-24T05:08:25.842Z,38.60
2023-04-24T05:10:54.980Z,39.00
2023-04-24T05:13:35.689Z,35.60
2023-04-24T05:16:06.836Z,36.00
2023-04-24T05:18:33.805Z,35.90
2023-04-24T05:21:01.096Z,34.80
2023-04-24T05:23:28.012Z,33.90
2023-04-24T05:25:54.958Z,34.10
2023-04-24T05:28:22.154Z,34.10
2023-04-24T05:30:49.391Z,33.10
2023-04-24T05:33:16.704Z,33.20
2023-04-24T05:35:46.860Z,33.60
2023-04-24T05:38:14.296Z,33.80
2023-04-24T05:40:41.693Z,31.30
2023-04-24T05:43:08.643Z,31.40
2023-04-24T05:45:37.106Z,32.30
2023-04-24T05:48:04.754Z,29.70
2023-04-24T05:50:31.786Z,31.00
2023-04-24T05:53:03.345Z,31.20
2023-04-24T05:55:33.850Z,30.40
2023-04-24T05:58:01.000Z,28.70
2023-04-24T06:00:28.205Z,26.20
2023-04-24T06:02:55.569Z,14.70
2023-04-24T06:05:23.294Z,13.20
2023-04-24T06:07:50.334Z,12.70
2023-04-24T06:10:17.368Z,14.10
2023-04-24T06:12:44.475Z,15.20
2023-04-24T06:15:11.638Z,17.30
2023-04-24T06:17:38.640Z,17.60
2023-04-24T06:20:09.157Z,17.10
2023-04-24T06:22:36.580Z,19.20
2023-04-24T06:25:04.128Z,21.90
2023-04-24T06:27:31.059Z,22.30
2023-04-24T06:29:58.049Z,18.60
2023-04-24T06:32:26.207Z,18.80
2023-04-24T06:34:54.268Z,19.70
2023-04-24T06:37:24.314Z,21.10
2023-04-24T06:39:51.228Z,20.60
2023-04-24T06:42:18.229Z,24.00
2023-04-24T06:44:46.149Z,26.40
2023-04-24T06:47:14.777Z,25.80
2023-04-24T06:49:42.294Z,28.70
2023-04-24T06:52:09.682Z,28.50
2023-04-24T06:54:36.602Z,29.90
2023-04-24T06:57:04.411Z,29.10
2023-04-24T06:59:31.778Z,30.10
2023-04-24T07:01:59.098Z,28.50
2023-04-24T07:04:26.781Z,28.20
2023-04-24T07:06:57.015Z,26.60
2023-04-24T07:09:26.475Z,22.20
2023-04-24T07:12:01.859Z,20.90
2023-04-24T07:14:42.697Z,20.00
2023-04-24T07:17:24.305Z,22.80
2023-04-24T07:19:51.686Z,24.70
2023-04-24T07:22:18.940Z,27.20
2023-04-24T07:24:46.147Z,25.50
2023-04-24T07:27:13.251Z,23.80
2023-04-24T07:29:41.629Z,23.00
2023-04-24T07:32:16.816Z,20.70
2023-04-24T07:34:44.144Z,22.00
2023-04-24T07:37:11.341Z,18.40
2023-04-24T07:39:38.734Z,14.90
2023-04-24T07:42:05.785Z,14.50
2023-04-24T07:44:33.262Z,15.20
2023-04-24T07:47:00.163Z,16.20
2023-04-24T07:49:27.137Z,19.70
2023-04-24T07:51:54.059Z,22.50
2023-04-24T07:54:21.220Z,24.70
2023-04-24T07:56:48.123Z,28.30
2023-04-24T07:59:15.050Z,27.40
2023-04-24T08:01:42.092Z,26.90
2023-04-24T08:04:09.107Z,29.00
2023-04-24T08:06:36.364Z,32.30
2023-04-24T08:09:03.821Z,33.90
2023-04-24T08:11:30.948Z,31.20
2023-04-24T08:13:57.945Z,30.10
2023-04-24T08:16:25.356Z,38.40
2023-04-24T08:18:53.037Z,44.10
2023-04-24T08:21:20.926Z,47.80
2023-04-24T08:23:47.876Z,47.40
2023-04-24T08:26:15.206Z,52.60
2023-04-24T08:28:42.294Z,62.30
2023-04-24T08:31:09.476Z,69.70
2023-04-24T08:33:37.012Z,66.30
2023-04-24T08:36:07.388Z,73.60
2023-04-24T08:38:35.043Z,71.80
2023-04-24T08:41:03.070Z,62.40
2023-04-24T08:43:30.058Z,66.40
2023-04-24T08:45:58.099Z,61.70
2023-04-24T08:48:31.406Z,56.10
2023-04-24T08:51:00.119Z,58.50
2023-04-24T08:53:28.167Z,56.10
2023-04-24T08:55:57.050Z,47.60
2023-04-24T08:58:27.524Z,44.30
2023-04-24T09:00:58.505Z,45.80
2023-04-24T09:03:26.180Z,56.30
2023-04-24T09:05:55.497Z,69.80
2023-04-24T09:08:26.648Z,73.80
2023-04-24T09:10:54.062Z,77.80
2023-04-24T09:13:24.127Z,81.90
2023-04-24T09:15:51.478Z,75.80
2023-04-24T09:18:18.690Z,75.00
2023-04-24T09:21:07.815Z,65.20
2023-04-24T09:23:35.020Z,64.10
2023-04-24T09:26:03.491Z,64.40
2023-04-24T09:28:37.008Z,64.60
2023-04-24T09:31:17.030Z,69.40
2023-04-24T09:34:03.292Z,70.20
2023-04-24T09:36:39.392Z,62.30
2023-04-24T09:39:16.498Z,70.20
2023-04-24T09:41:52.260Z,72.10
2023-04-24T09:44:24.207Z,81.50
2023-04-24T09:46:58.780Z,86.40
2023-04-24T09:49:36.097Z,91.70
2023-04-24T09:52:12.612Z,92.70
2023-04-24T09:54:40.812Z,95.90
2023-04-24T09:57:10.941Z,96.40
2023-04-24T09:59:45.794Z,97.80
2023-04-24T10:02:22.280Z,99.90
2023-04-24T10:04:57.772Z,99.90
2023-04-24T10:07:27.470Z,99.90
2023-04-24T10:09:55.032Z,99.90
2023-04-24T10:12:22.772Z,99.90
2023-04-24T10:14:51.067Z,99.90
2023-04-24T10:17:18.627Z,99.90
2023-04-24T10:19:47.731Z,99.90
2023-04-24T10:22:17.782Z,99.90
2023-04-24T10:24:46.377Z,99.90
2023-04-24T10:27:16.462Z,99.90
2023-04-24T10:29:46.051Z,99.90
2023-04-24T10:32:13.556Z,99.90
2023-04-24T10:34:42.238Z,99.90
2023-04-24T10:37:09.267Z,99.90
2023-04-24T10:39:38.501Z,99.90
2023-04-24T10:42:18.544Z,99.90
2023-04-24T10:44:50.148Z,99.90
2023-04-24T10:47:17.084Z,99.90
2023-04-24T10:49:44.442Z,99.90
2023-04-24T10:52:11.977Z,99.90
2023-04-24T10:54:51.418Z,99.90
2023-04-24T10:57:32.025Z,99.90
2023-04-24T11:00:19.291Z,99.90
2023-04-24T11:02:54.002Z,99.90
2023-04-24T11:05:22.609Z,99.90
2023-04-24T11:08:15.207Z,99.90
2023-04-24T11:10:55.956Z,99.90
2023-04-24T11:13:23.800Z,99.90
2023-04-24T11:16:21.511Z,99.90
2023-04-24T11:19:12.215Z,99.90
2023-04-24T11:22:15.669Z,99.90
2023-04-24T11:24:54.474Z,99.90
2023-04-24T11:27:23.352Z,99.90
2023-04-24T11:30:02.037Z,99.90
2023-04-24T11:32:51.228Z,99.90
2023-04-24T11:35:26.214Z,99.90
2023-04-24T11:40:26.102Z,99.90
2023-04-24T11:42:56.776Z,99.90
2023-04-24T11:45:31.858Z,99.90
2023-04-24T11:47:59.928Z,99.90
2023-04-24T11:50:28.940Z,99.90
2023-04-24T11:52:56.819Z,99.90
2023-04-24T11:55:29.552Z,99.90
2023-04-24T11:57:59.764Z,99.90
2023-04-24T12:00:29.764Z,99.90
2023-04-24T12:03:09.902Z,99.90
2023-04-24T12:05:37.697Z,99.90
2023-04-24T12:08:06.088Z,99.90
2023-04-24T12:10:34.206Z,99.90
2023-04-24T12:13:01.598Z,99.90
2023-04-24T12:15:29.656Z,99.90
2023-04-24T12:17:57.750Z,99.90
2023-04-24T12:20:33.254Z,99.90
2023-04-24T12:23:02.182Z,99.90
2023-04-24T12:25:31.340Z,99.90
2023-04-24T12:28:24.571Z,99.90
2023-04-24T12:30:52.807Z,99.90
2023-04-24T12:33:21.213Z,99.90
2023-04-24T12:35:49.816Z,99.90
2023-04-24T12:38:18.974Z,99.90
2023-04-24T12:40:45.987Z,99.90
2023-04-24T12:43:20.427Z,99.90
2023-04-24T12:45:50.413Z,99.90
2023-04-24T12:48:17.515Z,99.90
2023-04-24T12:50:47.080Z,99.90
2023-04-24T12:53:15.443Z,99.90
2023-04-24T12:55:42.444Z,99.90
2023-04-24T12:58:09.640Z,99.90
2023-04-24T13:00:37.476Z,99.90
2023-04-24T13:03:05.102Z,99.90
2023-04-24T13:05:32.256Z,99.90
2023-04-24T13:07:59.352Z,99.90
2023-04-24T13:10:26.392Z,99.90
2023-04-24T13:12:53.431Z,97.20
2023-04-24T13:15:20.462Z,93.50
2023-04-24T13:17:47.398Z,83.60
2023-04-24T13:20:14.701Z,83.40
2023-04-24T13:22:41.908Z,71.90
2023-04-24T13:25:09.956Z,75.90
2023-04-24T13:27:37.001Z,70.40
2023-04-24T13:30:04.788Z,68.00
2023-04-24T13:32:32.218Z,69.00
2023-04-24T13:34:59.978Z,69.90
2023-04-24T13:37:26.846Z,72.80
2023-04-24T13:39:53.936Z,72.50
2023-04-24T13:42:21.766Z,69.60
2023-04-24T13:44:48.858Z,70.10
2023-04-24T13:47:15.829Z,66.60
2023-04-24T13:49:42.744Z,56.90
2023-04-24T13:52:11.479Z,51.60
2023-04-24T13:54:38.424Z,41.30
2023-04-24T13:57:05.620Z,39.90
2023-04-24T13:59:32.642Z,35.40
2023-04-24T14:02:00.244Z,25.60
2023-04-24T14:04:27.399Z,24.70
2023-04-24T14:06:54.512Z,21.90
2023-04-24T14:09:21.464Z,22.00
2023-04-24T14:11:48.657Z,22.20
2023-04-24T14:14:17.073Z,26.10
2023-04-24T14:16:44.147Z,25.00
2023-04-24T14:19:11.095Z,26.40
2023-04-24T14:21:38.374Z,21.80
2023-04-24T14:24:05.545Z,27.90
2023-04-24T14:26:32.870Z,25.00
2023-04-24T14:29:11.514Z,22.20
2023-04-24T14:31:42.824Z,19.80
2023-04-24T14:34:10.556Z,17.40
2023-04-24T14:36:37.654Z,18.00
2023-04-24T14:39:07.887Z,15.10
2023-04-24T14:41:38.627Z,13.10
2023-04-24T14:44:05.955Z,10.40
2023-04-24T14:46:32.975Z,7.10
2023-04-24T14:49:00.246Z,8.60
2023-04-24T14:51:28.042Z,8.70
2023-04-24T14:53:55.033Z,9.90
2023-04-24T14:56:21.968Z,10.70
2023-04-24T14:58:48.919Z,12.30
2023-04-24T15:01:17.747Z,13.80
2023-04-24T15:03:45.707Z,16.60
2023-04-24T15:06:13.272Z,16.10
2023-04-24T15:08:41.245Z,14.10
2023-04-24T15:11:08.536Z,11.70
2023-04-24T15:13:35.466Z,11.30
2023-04-24T15:16:03.234Z,9.20
2023-04-24T15:18:30.528Z,15.50
2023-04-24T15:20:58.025Z,16.10
2023-04-24T15:23:24.974Z,17.60
2023-04-24T15:25:51.923Z,14.90
2023-04-24T15:28:19.039Z,19.00
2023-04-24T15:30:46.294Z,16.40
2023-04-24T15:33:13.825Z,16.20
2023-04-24T15:35:41.516Z,15.50
2023-04-24T15:38:08.959Z,16.70
2023-04-24T15:40:37.900Z,18.00
2023-04-24T15:43:04.833Z,17.20
2023-04-24T15:45:33.888Z,21.00
2023-04-24T15:48:01.743Z,20.10
2023-04-24T15:50:29.388Z,21.30
2023-04-24T15:52:56.415Z,19.20
2023-04-24T15:55:23.433Z,18.80
2023-04-24T15:57:50.483Z,20.00
2023-04-24T16:00:18.433Z,18.10
2023-04-24T16:02:46.163Z,20.60
2023-04-24T16:05:13.271Z,22.40
2023-04-24T16:07:40.487Z,22.30
2023-04-24T16:10:08.041Z,22.00
2023-04-24T16:12:35.020Z,25.50
2023-04-24T16:15:02.104Z,24.20
2023-04-24T16:17:29.013Z,27.80
2023-04-24T16:19:56.059Z,26.20
2023-04-24T16:22:23.133Z,30.20
2023-04-24T16:24:50.332Z,34.00
2023-04-24T16:27:17.272Z,39.60
2023-04-24T16:29:44.514Z,55.50
2023-04-24T16:32:11.820Z,67.40
2023-04-24T16:34:39.172Z,75.60
2023-04-24T16:37:06.812Z,85.70
2023-04-24T16:39:33.980Z,91.50
2023-04-24T16:42:02.016Z,84.40
2023-04-24T16:44:29.042Z,92.70
2023-04-24T16:46:56.169Z,96.50
2023-04-24T16:49:23.992Z,99.70
2023-04-24T16:51:51.101Z,99.90
2023-04-24T16:54:18.049Z,99.90
2023-04-24T16:56:45.092Z,99.90
2023-04-24T16:59:12.416Z,99.90
2023-04-24T17:01:39.424Z,97.50
2023-04-24T17:04:06.627Z,95.00
2023-04-24T17:06:33.867Z,92.20
2023-04-24T17:09:00.982Z,93.50
2023-04-24T17:11:29.930Z,92.00
2023-04-24T17:13:59.964Z,90.80
2023-04-24T17:16:27.480Z,88.50
2023-04-24T17:18:54.988Z,81.60
2023-04-24T17:21:21.881Z,77.50
2023-04-24T17:23:48.751Z,72.50
2023-04-24T17:26:16.307Z,74.10
2023-04-24T17:28:43.262Z,73.90
2023-04-24T17:31:10.758Z,71.70
2023-04-24T17:33:38.249Z,64.10
2023-04-24T17:36:06.856Z,50.20
2023-04-24T17:38:33.904Z,35.50
2023-04-24T17:41:01.761Z,34.00
2023-04-24T17:43:28.861Z,37.90
2023-04-24T17:45:56.657Z,39.80
2023-04-24T17:48:23.812Z,33.40
2023-04-24T17:50:51.715Z,30.20
2023-04-24T17:53:19.079Z,32.50
2023-04-24T17:55:46.556Z,31.40
2023-04-24T17:58:13.828Z,25.40
2023-04-24T18:00:41.577Z,24.70
2023-04-24T18:03:09.754Z,25.60
2023-04-24T18:05:38.552Z,25.50
2023-04-24T18:08:06.340Z,23.40
2023-04-24T18:10:37.381Z,24.10
2023-04-24T18:13:05.493Z,25.80
2023-04-24T18:15:32.892Z,22.70
2023-04-24T18:18:00.006Z,20.50
2023-04-24T18:20:27.650Z,19.60
2023-04-24T18:22:54.963Z,19.20
2023-04-24T18:25:26.939Z,19.50
2023-04-24T18:27:54.957Z,19.60
2023-04-24T18:30:23.424Z,22.00
2023-04-24T18:32:53.289Z,21.30
2023-04-24T18:35:21.476Z,22.30
2023-04-24T18:37:49.358Z,22.50
2023-04-24T18:40:17.220Z,24.30
2023-04-24T18:42:44.489Z,23.80
2023-04-24T18:45:15.058Z,25.90
2023-04-24T18:47:43.019Z,25.30
2023-04-24T18:50:11.322Z,26.20
2023-04-24T18:52:38.364Z,27.40
2023-04-24T18:55:07.103Z,29.60
2023-04-24T18:57:34.312Z,31.60
2023-04-24T19:00:01.377Z,34.50
2023-04-24T19:02:28.760Z,34.80
2023-04-24T19:04:55.859Z,38.60
2023-04-24T19:07:22.868Z,39.90
2023-04-24T19:09:49.768Z,42.80
2023-04-24T19:12:17.282Z,48.20
2023-04-24T19:14:45.892Z,49.80
2023-04-24T19:17:13.153Z,54.50
2023-04-24T19:19:40.024Z,58.30
2023-04-24T19:22:07.806Z,59.80
2023-04-24T19:24:34.888Z,59.80
2023-04-24T19:27:04.949Z,61.20
2023-04-24T19:29:31.862Z,63.80
2023-04-24T19:31:59.112Z,63.50
2023-04-24T19:34:26.920Z,64.90
2023-04-24T19:36:53.909Z,64.80
2023-04-24T19:39:21.097Z,68.50
2023-04-24T19:41:48.219Z,71.20
2023-04-24T19:44:17.344Z,72.30
2023-04-24T19:46:44.468Z,75.80
2023-04-24T19:49:11.892Z,78.30
2023-04-24T19:51:38.862Z,81.80
2023-04-24T19:54:06.551Z,84.20
2023-04-24T19:56:33.823Z,86.50
2023-04-24T19:59:01.202Z,85.00
2023-04-24T20:01:28.208Z,84.60
2023-04-24T20:03:55.492Z,84.70
2023-04-24T20:06:22.565Z,87.20
2023-04-24T20:08:49.711Z,88.20
2023-04-24T20:11:17.107Z,89.60
2023-04-24T20:13:44.050Z,90.30
2023-04-24T20:16:11.704Z,88.50
2023-04-24T20:18:38.999Z,90.30
2023-04-24T20:21:05.928Z,90.70
2023-04-24T20:23:32.868Z,91.40
2023-04-24T20:25:59.842Z,91.50
2023-04-24T20:28:30.475Z,92.70
2023-04-24T20:30:59.121Z,92.70
2023-04-24T20:33:28.199Z,92.70
2023-04-24T20:35:55.745Z,93.80
2023-04-24T20:38:23.184Z,94.10
2023-04-24T20:40:58.061Z,95.20
2023-04-24T20:43:28.785Z,96.10
2023-04-24T20:45:58.301Z,96.20
2023-04-24T20:48:26.601Z,96.70
2023-04-24T20:50:54.026Z,97.20
2023-04-24T20:53:21.681Z,98.30
2023-04-24T20:55:49.085Z,99.80
2023-04-24T20:58:18.378Z,99.90
2023-04-24T21:00:45.554Z,99.90
2023-04-24T21:03:12.745Z,99.90
2023-04-24T21:05:39.796Z,99.90
2023-04-24T21:08:06.709Z,99.90
2023-04-24T21:10:33.721Z,99.90
2023-04-24T21:13:01.316Z,99.90
2023-04-24T21:15:28.381Z,99.90
2023-04-24T21:17:55.586Z,99.90
2023-04-24T21:20:22.744Z,99.90
2023-04-24T21:22:49.737Z,99.90
2023-04-24T21:25:16.762Z,99.90
2023-04-24T21:27:43.782Z,99.90
2023-04-24T21:30:11.968Z,99.90
2023-04-24T21:32:40.667Z,99.90
2023-04-24T21:35:08.868Z,99.90
2023-04-24T21:37:37.925Z,99.90
2023-04-24T21:40:05.445Z,99.90
2023-04-24T21:42:32.350Z,99.90
2023-04-24T21:44:59.326Z,99.50
2023-04-24T21:47:26.345Z,98.60
2023-04-24T21:49:53.303Z,99.10
2023-04-24T21:52:20.279Z,98.70
2023-04-24T21:54:47.292Z,98.00
2023-04-24T21:57:14.259Z,98.00
2023-04-24T21:59:41.317Z,97.70
2023-04-24T22:02:08.220Z,98.20
2023-04-24T22:04:35.310Z,97.80
2023-04-24T22:07:02.309Z,97.80
2023-04-24T22:09:29.202Z,98.20
2023-04-24T22:11:56.346Z,96.50
2023-04-24T22:14:23.393Z,95.20
2023-04-24T22:16:50.370Z,93.70
2023-04-24T22:19:17.402Z,93.10
2023-04-24T22:21:45.794Z,92.40
2023-04-24T22:24:13.248Z,91.50
2023-04-24T22:26:40.369Z,92.00
2023-04-24T22:29:07.315Z,91.90
2023-04-24T22:31:35.019Z,92.40
2023-04-24T22:34:01.985Z,90.90
2023-04-24T22:36:28.899Z,90.80
2023-04-24T22:38:55.914Z,89.60
2023-04-24T22:41:23.327Z,88.80
2023-04-24T22:43:50.958Z,90.30
2023-04-24T22:46:18.170Z,88.90
2023-04-24T22:48:45.768Z,89.70
2023-04-24T22:51:12.771Z,88.70
2023-04-24T22:53:39.676Z,88.70
2023-04-24T22:56:07.428Z,89.50
2023-04-24T22:58:34.322Z,89.00
2023-04-24T23:01:01.281Z,89.90
2023-04-24T23:03:28.374Z,89.90
2023-04-24T23:05:55.730Z,90.30
2023-04-24T23:08:22.726Z,89.80
2023-04-24T23:10:49.753Z,87.90
2023-04-24T23:13:17.305Z,89.10
2023-04-24T23:15:44.273Z,89.20
2023-04-24T23:18:11.731Z,86.40
2023-04-24T23:20:39.089Z,83.60
2023-04-24T23:23:05.980Z,83.00
2023-04-24T23:25:35.324Z,82.50
2023-04-24T23:28:02.257Z,82.80
2023-04-24T23:30:30.003Z,84.30
2023-04-24T23:32:57.017Z,84.20
2023-04-24T23:35:24.357Z,83.00
2023-04-24T23:37:51.314Z,83.60
2023-04-24T23:40:18.268Z,84.70
2023-04-24T23:42:49.557Z,84.60
2023-04-24T23:45:21.006Z,85.80
2023-04-24T23:47:47.954Z,85.60
2023-04-24T23:50:14.981Z,86.50
2023-04-24T23:52:41.913Z,89.60
2023-04-24T23:55:09.746Z,90.40
2023-04-24T23:57:36.707Z,91.30
